Startpagina
METAR-TAF:

METAR-TAF

Vliegvelden :

Internationale luchthaven Chengdu Shuangliu

Chengdu, China

breedte: 30-40N, lengte: 104-01E, hoogte: 508 m

Actueel weer

Dit bericht is 23 minuten geleden gemaakt, om 13:00 UTC
Weinig wind
Temperatuur 11°C
Vochtigheid 76%
Druk 1024 hPa
Zicht 10 km of meer
Weinig wolken op 4000 ft

METAR: ZUUU 191300Z 00000MPS 9999 FEW040 11/07 Q1024 NOSIG

Tijdstip: 21:23 (13:23 UTC)

Verwachting

Dit bericht is 5 uur en het 18 minuten geleden gemaakt, om 08:05 UTC
Verwachting geldig van 19 om 12 UTC tot 20 om 12 UTC
Wind 4 kt uit het noordnoordoosten
Zicht: 5000 m
Verspreide wolken op 3000 ft
nevel

TAF: ZUUU 190805Z 1912/2012 02002MPS 5000 BR SCT030 TX14/2007Z TN08/1923Z

Waarnemingen en weersverwachtingen van meer dan 4000 vliegvelden (METAR en TAF).

De beschikbare stations zijn de gele en rode punten op de kaart.

Ga met uw muis naar het station om de naam te zien.

Klik dan om waarnemingen en weersverwachtingen te zien.

kaart wijzigen: klik op de groene knoppen met een zwart kruis om in te zoomen, op de groene knop met een streepje om uit te zoomen of op de groene pijlen voor aangrenzende kaarten.


METAR-TAF: